Terminal Aerodrome Forecast
Issued by NWS

Home | Current Version | Previous Version | Text Only | Print | Product List | Glossary On
Versions: 1 2 3 4 5 6 7 8 9 10 11 12 13 14 15 16 17 18 19 20 21 22 23
000
FTUS45 KPSR 222327 CCA
TAFSDL
TAF COR
KSDL 222327Z 2300/2324 35013KT P6SM VCTS SCT080CB BKN120 BKN250
      TEMPO 2300/2301 02014G25KT 3SM -TSRA BR BKN060CB OVC100
     FM230100 03008KT P6SM FEW080 BKN150
     FM230500 07008KT P6SM VCSH BKN080 OVC100
     FM230900 VRB04KT P6SM SCT100 BKN150
     FM232000 25007KT P6SM FEW070 SCT150=

USA.gov is the U.S. government's official web portal to all federal, state and local government web resources and services.